This is the latest recevied weather packets stored in our database for station/object IZ7XUV. If no packets are shown the sender has not sent any weather packets the latest 10 day(s).
| Time | Temp. | Humidity | Pressure | Rain* | Wind** | Luminosity | Snow |
|---|---|---|---|---|---|---|---|
| 1777656332 | 16.11° C | 45% | 1021.6 hPa | 0 mm | - | 18 W/m² | - |
| 1777653954 | 16.11° C | 43% | 1021.5 hPa | 0 mm | - | 55 W/m² | - |
| 1777652143 | 16.11° C | 45% | 1021.7 hPa | 0 mm | - | 95 W/m² | - |
| 1777644376 | 16.67° C | 38% | 1022.1 hPa | 0 mm | - | 477 W/m² | - |
| 1777643156 | 17.22° C | 41% | 1022.2 hPa | 0 mm | - | 525 W/m² | - |
| 1777642546 | 16.67° C | 37% | 1022.4 hPa | 0 mm | - | 548 W/m² | - |
| 1777636568 | 16.67° C | 41% | 1022.6 hPa | 0 mm | - | 718 W/m² | - |
| 1777634128 | 16.11° C | 40% | 1022.8 hPa | 0 mm | - | 749 W/m² | - |
| 1777631750 | 16.11° C | 44% | 1023.2 hPa | 0 mm | - | 753 W/m² | - |
| 1777630550 | 16.11° C | 41% | 1023.1 hPa | 0 mm | - | 747 W/m² | - |
| 1777629920 | 16.11° C | 41% | 1023 hPa | 0 mm | - | 741 W/m² | - |
| 1777626320 | 16.11° C | 42% | 1022.9 hPa | 0 mm | - | 673 W/m² | - |
| 1777624552 | 15.56° C | 43% | 1022.7 hPa | 0 mm | - | 621 W/m² | - |
| 1777619733 | 15.56° C | 47% | 1022.1 hPa | 0 mm | - | 430 W/m² | - |
| 1777614975 | 15° C | 48% | 1021.7 hPa | 0 mm | - | 193 W/m² | - |
| 1777613145 | 14.44° C | 50% | 1021.7 hPa | 0 mm | - | 115 W/m² | - |
| 1777611944 | 14.44° C | 51% | 1021.7 hPa | 0 mm | - | 73 W/m² | - |
| 1777605337 | 14.44° C | 61% | 1021 hPa | 0 mm | - | 0 W/m² | - |
| 1777602957 | 15° C | 64% | 1021 hPa | 0 mm | - | 0 W/m² | - |
| 1777598138 | 15° C | 65% | 1020.9 hPa | 0 mm | - | 0 W/m² | - |
| 1777596938 | 15° C | 66% | 1021 hPa | 0 mm | - | 0 W/m² | - |
| 1777596368 | 15° C | 69% | 1021 hPa | 0 mm | - | 0 W/m² | - |
| 1777593318 | 12.78° C | 74% | 1021.2 hPa | 0 mm | - | 0 W/m² | - |
| 1777592199 | 11.67° C | 75% | 1021.3 hPa | 0 mm | - | 0 W/m² | - |
| 1777590939 | 11.67° C | 76% | 1021.3 hPa | 0 mm | - | 0 W/m² | - |
* Rain latest hour (hover to see other rain measurements)
** Current wind speed in m/s (hover to see current wind gust speed)